x

South Santa Rosa Is. Ca (46069) Wave Buoy

5:50 - Fri 1st Aug 2014 All times are PDT. -7 hours from GMT.

  • Sig Wave height 3.9ft
  • Peak Period 12s
  • Average Period 5s
  • Wind
    16mph, 18mph gusts
  • Sea Temp 65°f
  • Aire Temp 62°f
  • Sea Pressure 1012.7mb
  • South Santa Rosa Is. Ca
  • South Santa Rosa Is. Ca

More Historic Weather Station data

Upgrade to MSW Pro to gain access to the past 30 days of data for over 8000 Wavebouys and Weather Stations around the globe.

Join Pro

Comparision Forecast

View Surf forecast
   
vie 08/01 5:50 4ft 12s 5s 16 18 mph 1012.7mb 65f 62f
4:50 4.5ft 6s 5s 18 22 mph 1012.3mb 66f 63f
3:50 5ft 6s 5s 18 20 mph 1012.3mb 66f 63f
2:50 5ft 6s 5s 20 25 mph 1012.2mb 66f 63f
1:50 5ft 5s 5s 20 25 mph 1012.1mb 66f 64f
12:50 5ft 6s 5s 25 29 mph 1011.9mb 66f 64f
jue 07/31 11:50 5ft 5s 5s 22 27 mph 1012.4mb 66f 64f
10:50 5ft 5s 5s 22 27 mph 1012.5mb 66f 64f
9:50 5ft 6s 5s 22 27 mph 1012.4mb 66f 64f
8:50 5ft 6s 5s 22 27 mph 1012.1mb 66f 64f
7:50 5ft 6s 4s 20 25 mph 1012mb 66f 64f
6:50 5ft 5s 5s 22 27 mph 1011.6mb 66f 64f
5:50 5ft 5s 5s 22 27 mph 1012mb 66f 64f
4:50 5ft 6s 5s 22 27 mph 1012.2mb 67f 64f
3:50 5ft 6s 5s 20 25 mph 1012.9mb 67f 65f
2:50 5ft 12s 5s 18 22 mph 1013.4mb 66f 64f
1:50 5ft 12s 5s 22 27 mph 1013.4mb 66f 64f
12:50 5ft 12s 5s 20 22 mph 1014.2mb 66f 64f
11:50 5ft 6s 5s 20 25 mph 1014.3mb 66f 63f
10:50 5ft 6s 5s 20 25 mph 1014.1mb 66f 63f
9:50 5ft 6s 5s 20 25 mph 1014mb 66f 63f
8:50 5.5ft 6s 5s 22 25 mph 1013.9mb 66f 62f
7:50 5.5ft 6s 5s 22 27 mph 1013.5mb 66f 62f
5:50 6ft 6s 5s 25 29 mph 1013mb 66f 63f
4:50 6ft 6s 5s 27 31 mph 1012.8mb 66f 63f
3:50 6ft 6s 5s 25 29 mph 1012.9mb 67f 63f
2:50 6ft 6s 5s 25 29 mph 1013mb 67f 64f
1:50 5.5ft 6s 5s 25 29 mph 1013.3mb 67f 64f
12:50 5.5ft 6s 5s 25 29 mph 1013.4mb 67f 64f
mié 07/30 11:50 6ft 5s 5s 25 29 mph 1013.8mb 67f 64f
10:50 6ft 5s 5s 25 29 mph 1013.9mb 67f 64f
9:50 6ft 8s 5s 25 29 mph 1014mb 67f 64f
8:50 5.5ft 6s 5s 22 29 mph 1013.1mb 67f 64f
7:50 5ft 6s 5s 25 29 mph 1012.5mb 67f 65f
6:50 5ft 6s 5s 20 25 mph 1013.4mb 67f 65f
5:50 5ft 5s 5s 22 27 mph 1013.5mb 67f 65f
4:50 4.5ft 6s 5s 20 27 mph 1013.9mb 67f 65f
3:50 4.5ft 6s 5s 20 22 mph 1014mb 67f 65f
2:50 4.5ft 5s 4s 20 25 mph 1014.3mb 67f 65f
1:50 5ft 8s 5s 22 25 mph 1014.2mb 67f 65f
12:50 4.5ft 5s 5s 20 22 mph 1014.9mb 67f 65f
11:50 4.5ft 6s 5s 20 22 mph 1015mb 67f 64f
10:50 5ft 6s 5s 22 27 mph 1014.9mb 67f 64f
9:50 5ft 6s 5s 22 27 mph 1014.7mb 67f 64f
8:50 4.5ft 6s 5s 22 25 mph 1014.8mb 67f 64f
7:50 4.5ft 6s 5s 20 22 mph 1014.8mb 67f 64f
6:50 5ft 6s 5s 20 22 mph 1014.4mb 67f 64f
5:50 5ft 6s 5s 20 27 mph 1013.8mb 67f 64f
4:50 5ft 5s 5s 20 25 mph 1013.7mb 67f 65f
3:50 6ft 5s 5s 22 29 mph 1013.2mb 67f 65f
2:50 5ft 11s 5s 22 29 mph 1013.3mb 67f 65f
1:50 5ft 5s 5s 25 29 mph 1013.4mb 67f 65f
12:50 4.5ft 5s 4s 25 29 mph 1013.9mb 67f 65f
mar 07/29 11:50 4.5ft 5s 4s 22 25 mph 1014.7mb 67f 65f
10:50 4.5ft 5s 5s 22 25 mph 1014.8mb 67f 65f
9:50 4.5ft 5s 5s 22 27 mph 1014.6mb 67f 65f
8:50 4.5ft 5s 5s 20 25 mph 1014.5mb 67f 65f
7:50 4.5ft 5s 5s 20 25 mph 1014.4mb 67f 65f
6:50 4.5ft 5s 5s 20 25 mph 1014.4mb 67f 66f
5:50 4ft 9s 5s 18 20 mph 1014.9mb 67f 66f
4:50 4ft 8s 5s 18 20 mph 1015.1mb 67f 66f
3:50 4.5ft 5s 5s 18 20 mph 1015.5mb 67f 65f
2:50 4.5ft 8s 5s 20 22 mph 1015.7mb 67f 65f
1:50 4ft 8s 5s 20 22 mph 1015.9mb 67f 65f
12:50 4.5ft 8s 5s 18 20 mph 1016.7mb 67f 65f
11:50 4.5ft 8s 5s 18 20 mph 1017.1mb 67f 65f
10:50 4ft 8s 5s 16 18 mph 1017.5mb 66f 65f
9:50 4ft 8s 5s 13 18 mph 1017.8mb 66f 65f
8:50 4.5ft 8s 5s 13 18 mph 1017.7mb 66f 64f
7:50 4.5ft 8s 5s 13 18 mph 1017.4mb 67f 64f
6:50 3.5ft 8s 5s 16 20 mph 1016.4mb 67f 64f
5:50 3.5ft 8s 5s 18 20 mph 1016.1mb 67f 64f
4:50 4ft 14s 6s 16 18 mph 1016mb 67f 64f
3:50 3.5ft 8s 5s 16 18 mph 1016.3mb 67f 65f
2:50 4ft 9s 5s 16 20 mph 1016.2mb 67f 65f
1:50 4ft 14s 5s 16 20 mph 1016.2mb 67f 65f
12:50 4ft 9s 5s 13 16 mph 1016.5mb 67f 65f
lun 07/28 11:50 4ft 9s 5s 16 18 mph 1016.3mb 67f 65f
10:50 4ft 8s 5s 18 20 mph 1016.4mb 67f 65f
9:50 3.5ft 9s 5s 18 20 mph 1017mb 67f 65f
8:50 4ft 8s 5s 18 22 mph 1016.3mb 67f 65f
7:50 4ft 8s 5s 16 18 mph 1016.4mb 68f 66f
6:50 3.5ft 14s 6s 16 18 mph 1016.2mb 68f 66f
5:50 4ft 14s 7s 13 16 mph 1016.6mb 68f 66f
4:50 4ft 8s 7s 13 16 mph 1016.8mb 68f 66f
3:50 4.5ft 9s 7s 9 11 mph 1017.5mb 68f 66f
2:50 4.5ft 8s 7s 7 9 mph 1017.8mb 68f 66f